Time;durP1;ratioP1;P1;durP2;ratioP2;P2;SDS_P1;SDS_P2;PMS_P1;PMS_P2;Temp;Humidity;BMP_temperature;BMP_pressure;BME280_temperature;BME280_humidity;BME280_pressure;Samples;Min_cycle;Max_cycle;Signal;HPM_P1;HPM_P2
2022/10/22 00:01:09;;;;;;;3.42;0.90;;;21.60;99.90;;;;;;4990535;28;20209;-76
2022/10/22 00:03:40;;;;;;;3.65;0.95;;;21.60;99.90;;;;;;4974946;28;20196;-76
2022/10/22 00:06:11;;;;;;;5.97;0.93;;;21.60;99.90;;;;;;4975456;28;20259;-75
2022/10/22 00:08:42;;;;;;;2.28;0.80;;;21.70;99.90;;;;;;4974541;28;20223;-74
2022/10/22 00:11:14;;;;;;;2.20;0.65;;;21.70;99.90;;;;;;4972582;28;20224;-75
2022/10/22 00:13:48;;;;;;;4.20;0.73;;;21.80;99.90;;;;;;4978303;28;20287;-76
2022/10/22 00:16:19;;;;;;;2.95;0.75;;;21.80;99.90;;;;;;4973748;28;20216;-70
2022/10/22 00:18:50;;;;;;;3.38;0.80;;;21.90;99.90;;;;;;4975094;28;20211;-74
2022/10/22 00:21:21;;;;;;;5.35;0.90;;;21.90;99.90;;;;;;4972791;28;20200;-77
2022/10/22 00:23:52;;;;;;;1.45;0.75;;;22.20;99.90;;;;;;4978107;28;20207;-76
2022/10/22 00:26:23;;;;;;;2.65;0.80;;;22.50;99.90;;;;;;4976589;28;20686;-72
2022/10/22 00:28:56;;;;;;;6.20;0.95;;;22.80;99.90;;;;;;4972607;28;20307;-77
2022/10/22 00:31:27;;;;;;;1.73;0.70;;;23.20;99.90;;;;;;4972080;28;20207;-74
2022/10/22 00:33:58;;;;;;;3.53;0.82;;;23.50;99.90;;;;;;4973892;28;20196;-72
2022/10/22 00:36:29;;;;;;;4.78;0.95;;;23.90;99.90;;;;;;4978664;28;20203;-75
2022/10/22 00:39:00;;;;;;;2.88;0.82;;;24.00;99.90;;;;;;4975864;28;20246;-73
2022/10/22 00:41:31;;;;;;;3.97;0.95;;;24.10;99.90;;;;;;4971293;28;20637;-71
2022/10/22 00:44:05;;;;;;;4.13;1.20;;;24.20;99.90;;;;;;4976038;28;20212;-72
2022/10/22 00:46:36;;;;;;;3.83;1.00;;;24.20;99.90;;;;;;4971266;28;20211;-74
2022/10/22 00:49:07;;;;;;;6.57;2.28;;;24.30;99.90;;;;;;4971795;28;20275;-78
2022/10/22 00:51:38;;;;;;;5.32;1.10;;;24.40;99.90;;;;;;4971995;28;20582;-70
2022/10/22 00:54:10;;;;;;;3.67;1.30;;;24.50;99.90;;;;;;4973670;28;20546;-70
2022/10/22 00:56:41;;;;;;;2.25;0.90;;;24.60;99.90;;;;;;4973155;28;20585;-70
2022/10/22 00:59:17;;;;;;;3.08;0.90;;;24.80;99.90;;;;;;4972541;28;20648;-71
2022/10/22 01:01:49;;;;;;;2.25;0.75;;;24.80;99.90;;;;;;4973376;28;20207;-70
2022/10/22 01:04:20;;;;;;;3.22;0.90;;;24.90;99.90;;;;;;4973112;28;20557;-79
2022/10/22 01:06:51;;;;;;;2.72;0.90;;;24.90;99.90;;;;;;4973227;28;20220;-78
2022/10/22 01:09:30;;;;;;;2.22;0.98;;;25.00;99.90;;;;;;4976849;28;20306;-74
2022/10/22 01:12:07;;;;;;;1.73;0.88;;;25.20;99.90;;;;;;4972358;28;20284;-73
2022/10/22 01:14:53;;;;;;;3.55;1.10;;;25.30;99.90;;;;;;4971743;28;20195;-74
2022/10/22 01:17:33;;;;;;;4.55;1.00;;;25.30;99.90;;;;;;4980980;28;20206;-79
2022/10/22 01:20:12;;;;;;;3.55;0.80;;;25.40;99.90;;;;;;4966158;28;20196;-76
2022/10/22 01:22:45;;;;;;;3.30;0.90;;;25.40;99.90;;;;;;4972630;28;20202;-73
2022/10/22 01:25:23;;;;;;;7.82;1.40;;;25.60;99.90;;;;;;4972787;28;20192;-75
2022/10/22 01:28:03;;;;;;;7.93;1.48;;;25.90;99.90;;;;;;4973478;28;20192;-76
2022/10/22 01:30:38;;;;;;;7.93;1.65;;;25.80;99.90;;;;;;4978449;28;20254;-76
2022/10/22 01:33:15;;;;;;;3.35;1.10;;;25.70;99.90;;;;;;4970623;28;20670;-73
2022/10/22 01:35:48;;;;;;;4.18;0.95;;;25.70;99.90;;;;;;4974132;28;20207;-75
2022/10/22 01:38:23;;;;;;;5.80;1.52;;;25.80;99.90;;;;;;4971188;28;20228;-77
2022/10/22 01:40:55;;;;;;;7.47;1.20;;;25.90;99.90;;;;;;4974720;28;20199;-78
2022/10/22 01:43:26;;;;;;;13.00;6.20;;;25.90;99.90;;;;;;4971891;28;20195;-75
2022/10/22 01:46:02;;;;;;;4.28;1.20;;;26.00;99.90;;;;;;4973846;28;20224;-78
2022/10/22 01:48:42;;;;;;;5.93;1.42;;;26.10;99.90;;;;;;4972972;28;20199;-77
2022/10/22 01:51:36;;;;;;;9.40;1.65;;;26.10;99.90;;;;;;4970596;28;20570;-74
2022/10/22 01:54:19;;;;;;;9.30;1.67;;;25.90;99.90;;;;;;4972841;28;20197;-74
2022/10/22 01:57:00;;;;;;;10.68;1.77;;;25.60;99.90;;;;;;4976153;28;20272;-74
2022/10/22 01:59:43;;;;;;;11.48;2.28;;;25.40;99.90;;;;;;4974084;28;20272;-74
2022/10/22 02:02:27;;;;;;;11.25;2.53;;;25.20;99.90;;;;;;4974493;28;20196;-73
2022/10/22 02:05:04;;;;;;;10.38;2.05;;;24.90;99.90;;;;;;4975162;28;20188;-72
2022/10/22 02:07:44;;;;;;;9.82;2.30;;;24.70;99.90;;;;;;4974168;28;20683;-76
2022/10/22 02:10:16;;;;;;;9.00;1.88;;;24.70;99.90;;;;;;4973748;28;20224;-75
2022/10/22 02:12:50;;;;;;;9.57;1.55;;;24.60;99.90;;;;;;4975560;28;20201;-77
2022/10/22 02:15:22;;;;;;;13.98;1.80;;;24.60;99.90;;;;;;4976022;28;20207;-77
2022/10/22 02:17:58;;;;;;;8.80;1.92;;;24.60;99.90;;;;;;4975235;28;20191;-75
2022/10/22 02:20:34;;;;;;;6.85;1.92;;;24.60;99.90;;;;;;4975620;28;20188;-77
2022/10/22 02:23:06;;;;;;;10.52;1.90;;;24.50;99.90;;;;;;4972644;28;20188;-79
2022/10/22 02:25:39;;;;;;;10.10;1.80;;;24.40;99.90;;;;;;4975516;28;20184;-73
2022/10/22 02:28:18;;;;;;;9.75;1.70;;;24.30;99.90;;;;;;4975675;28;20189;-76
2022/10/22 02:30:54;;;;;;;9.30;2.00;;;24.20;99.90;;;;;;4974986;28;20279;-76
2022/10/22 02:33:30;;;;;;;10.88;1.85;;;24.20;99.90;;;;;;4975049;28;20200;-76
2022/10/22 02:36:02;;;;;;;7.35;1.88;;;24.10;99.90;;;;;;4974832;28;20196;-76
2022/10/22 02:38:36;;;;;;;10.30;2.08;;;24.00;99.90;;;;;;4974573;28;20232;-75
2022/10/22 02:41:07;;;;;;;5.60;1.65;;;23.90;99.90;;;;;;4972521;28;20189;-77
2022/10/22 02:43:44;;;;;;;10.25;2.10;;;23.80;99.90;;;;;;4975788;28;20204;-74
2022/10/22 02:46:15;;;;;;;12.25;2.00;;;23.60;99.90;;;;;;4975597;28;20208;-75
2022/10/22 02:48:48;;;;;;;7.95;1.85;;;23.70;99.90;;;;;;4975762;28;20192;-77
2022/10/22 02:51:19;;;;;;;7.80;1.50;;;23.70;99.90;;;;;;4975377;28;20648;-76
2022/10/22 02:53:49;;;;;;;9.32;1.75;;;23.70;99.90;;;;;;4975168;28;20188;-75
2022/10/22 02:56:20;;;;;;;9.90;2.20;;;23.80;99.90;;;;;;4975232;28;20192;-78
2022/10/22 02:58:51;;;;;;;6.80;1.45;;;23.80;99.90;;;;;;4975180;28;20527;-76
2022/10/22 03:01:22;;;;;;;10.32;2.00;;;23.90;99.90;;;;;;4975476;28;20188;-75
2022/10/22 03:03:55;;;;;;;8.20;1.67;;;24.10;99.90;;;;;;4974664;28;20192;-76
2022/10/22 03:06:26;;;;;;;7.55;1.45;;;24.30;99.90;;;;;;4974936;28;20212;-77
2022/10/22 03:08:57;;;;;;;6.82;1.77;;;24.40;99.90;;;;;;4974233;28;20192;-75
2022/10/22 03:11:27;;;;;;;11.40;1.70;;;24.40;99.90;;;;;;4957595;28;20212;-76
2022/10/22 03:13:58;;;;;;;12.27;1.83;;;24.30;99.90;;;;;;4973692;28;20767;-78
2022/10/22 03:16:29;;;;;;;15.20;1.98;;;24.10;99.90;;;;;;4974253;28;20561;-77
2022/10/22 03:19:02;;;;;;;11.45;1.67;;;24.00;99.90;;;;;;4974271;28;20554;-77
2022/10/22 03:21:37;;;;;;;7.72;1.63;;;23.80;99.90;;;;;;4972463;28;20195;-76
2022/10/22 03:24:13;;;;;;;10.10;1.80;;;23.70;99.90;;;;;;4971878;28;20588;-74
2022/10/22 03:26:44;;;;;;;12.65;2.22;;;23.70;99.90;;;;;;4974135;28;20218;-74
2022/10/22 03:29:17;;;;;;;10.57;1.98;;;23.60;99.90;;;;;;4972126;28;20192;-75
2022/10/22 03:31:47;;;;;;;14.38;2.20;;;23.50;99.90;;;;;;4974681;28;20204;-77
2022/10/22 03:34:20;;;;;;;17.40;2.22;;;23.40;99.90;;;;;;4974141;28;20185;-75
2022/10/22 03:36:52;;;;;;;11.07;2.38;;;23.30;99.90;;;;;;4974131;28;20196;-76
2022/10/22 03:39:25;;;;;;;10.50;1.85;;;23.20;99.90;;;;;;4974589;28;20188;-75
2022/10/22 03:41:57;;;;;;;12.98;2.40;;;23.10;99.90;;;;;;4973460;28;20188;-78
2022/10/22 03:44:28;;;;;;;10.48;2.10;;;23.00;99.90;;;;;;4973969;28;20228;-78
2022/10/22 03:46:59;;;;;;;16.05;2.42;;;22.90;99.90;;;;;;4973863;28;20212;-74
2022/10/22 03:49:32;;;;;;;11.32;2.00;;;22.90;99.90;;;;;;4971481;28;20189;-77
2022/10/22 03:52:08;;;;;;;12.98;1.98;;;22.90;99.90;;;;;;4971008;28;20664;-76
2022/10/22 03:54:40;;;;;;;11.43;2.20;;;22.80;99.90;;;;;;4967282;28;20196;-78
2022/10/22 03:57:12;;;;;;;8.80;2.08;;;22.80;99.90;;;;;;4970423;28;20672;-78
2022/10/22 03:59:45;;;;;;;12.32;1.80;;;22.80;99.90;;;;;;4971974;28;20239;-75
2022/10/22 04:02:16;;;;;;;13.43;1.98;;;22.80;99.90;;;;;;4974600;28;20200;-77
2022/10/22 04:04:49;;;;;;;10.43;1.88;;;22.70;99.90;;;;;;4972944;28;20196;-76
2022/10/22 04:07:20;;;;;;;11.80;2.22;;;22.60;99.90;;;;;;4973150;28;20218;-75
2022/10/22 04:09:50;;;;;;;14.57;2.80;;;22.50;99.90;;;;;;4972919;28;20220;-77
2022/10/22 04:12:21;;;;;;;17.70;2.50;;;22.40;99.90;;;;;;4974187;28;20189;-77
2022/10/22 04:14:52;;;;;;;16.83;3.03;;;22.40;99.90;;;;;;4972186;28;20200;-77
2022/10/22 04:17:23;;;;;;;18.23;2.80;;;22.30;99.90;;;;;;4971609;28;20198;-76
2022/10/22 04:19:56;;;;;;;19.88;3.33;;;22.30;99.90;;;;;;4975226;28;20204;-77
2022/10/22 04:22:27;;;;;;;17.88;2.35;;;22.10;99.90;;;;;;4973655;28;20192;-78
2022/10/22 04:24:58;;;;;;;22.63;3.25;;;22.10;99.90;;;;;;4972231;28;20216;-80
2022/10/22 04:27:31;;;;;;;18.13;2.47;;;22.10;99.90;;;;;;4972141;28;20228;-78
2022/10/22 04:30:02;;;;;;;15.32;2.38;;;22.10;99.90;;;;;;4973311;28;20203;-77
2022/10/22 04:32:33;;;;;;;18.02;2.90;;;22.10;99.90;;;;;;4973482;28;20215;-73
2022/10/22 04:35:06;;;;;;;20.50;3.10;;;22.20;99.90;;;;;;4976770;28;20726;-77
2022/10/22 04:37:37;;;;;;;19.33;2.55;;;22.20;99.90;;;;;;4974610;28;20730;-79
2022/10/22 04:40:09;;;;;;;16.70;2.83;;;22.20;99.90;;;;;;4970214;28;20196;-78
2022/10/22 04:42:40;;;;;;;16.70;2.53;;;22.30;99.90;;;;;;4973977;28;20199;-75
2022/10/22 04:45:12;;;;;;;16.58;2.45;;;22.30;99.90;;;;;;4974391;28;20235;-76
2022/10/22 04:47:43;;;;;;;14.75;2.60;;;22.30;99.90;;;;;;4972307;28;20216;-77
2022/10/22 04:50:16;;;;;;;13.63;2.42;;;22.30;99.90;;;;;;4972147;28;20195;-75
2022/10/22 04:52:46;;;;;;;15.35;2.35;;;22.40;99.90;;;;;;4975943;28;20200;-77
2022/10/22 04:55:17;;;;;;;15.27;2.45;;;22.30;99.90;;;;;;4978711;28;20206;-78
2022/10/22 04:57:48;;;;;;;12.82;2.15;;;22.30;99.90;;;;;;4971648;28;20732;-75
2022/10/22 05:00:20;;;;;;;14.60;2.35;;;22.20;99.90;;;;;;4973618;28;20198;-76
2022/10/22 05:02:52;;;;;;;20.63;2.80;;;22.10;99.90;;;;;;4969136;28;20309;-72
2022/10/22 05:05:25;;;;;;;13.75;2.60;;;22.10;99.90;;;;;;4971417;28;20199;-73
2022/10/22 05:07:56;;;;;;;14.80;2.47;;;22.10;99.90;;;;;;4969917;28;20213;-79
2022/10/22 05:10:27;;;;;;;13.05;2.20;;;22.10;99.90;;;;;;4973349;28;20597;-79
2022/10/22 05:12:58;;;;;;;14.57;2.88;;;22.10;99.90;;;;;;4982016;28;20693;-75
2022/10/22 05:15:29;;;;;;;12.93;2.53;;;22.10;99.90;;;;;;4966224;28;20664;-78
2022/10/22 05:18:00;;;;;;;13.65;2.55;;;22.20;99.90;;;;;;4970674;28;20196;-76
2022/10/22 05:20:33;;;;;;;17.27;2.28;;;22.30;99.90;;;;;;4974993;28;20206;-78
2022/10/22 05:23:04;;;;;;;12.13;2.17;;;22.40;99.90;;;;;;4980838;28;20203;-77
2022/10/22 05:25:38;;;;;;;13.27;2.58;;;22.50;99.90;;;;;;4983884;28;20196;-76
2022/10/22 05:28:09;;;;;;;12.80;2.40;;;22.50;99.90;;;;;;4979899;28;20575;-76
2022/10/22 05:30:40;;;;;;;10.15;2.00;;;22.60;99.90;;;;;;4975429;28;20660;-77
2022/10/22 05:33:11;;;;;;;14.55;2.45;;;22.60;99.90;;;;;;4981763;28;20199;-80
2022/10/22 05:35:44;;;;;;;14.68;2.38;;;22.60;99.90;;;;;;4996674;28;20735;-76
2022/10/22 05:38:14;;;;;;;13.77;2.00;;;22.60;99.90;;;;;;4978022;28;20228;-77
2022/10/22 05:40:45;;;;;;;11.32;2.22;;;22.50;99.90;;;;;;4970451;28;20208;-80
2022/10/22 05:43:16;;;;;;;10.20;2.10;;;22.50;99.90;;;;;;4978168;28;20198;-81
2022/10/22 05:45:47;;;;;;;14.32;2.10;;;22.50;99.90;;;;;;4975603;28;20196;-78
2022/10/22 05:48:18;;;;;;;15.95;2.28;;;22.50;99.90;;;;;;4976443;28;20231;-78
2022/10/22 05:50:51;;;;;;;12.32;1.85;;;22.40;99.90;;;;;;4990810;28;20659;-77
2022/10/22 05:53:22;;;;;;;12.15;2.33;;;22.40;99.90;;;;;;4979271;28;20200;-81
2022/10/22 05:55:53;;;;;;;14.88;2.20;;;22.30;99.90;;;;;;4979688;28;20207;-79
2022/10/22 05:58:24;;;;;;;13.20;2.30;;;22.30;99.90;;;;;;4978623;28;20203;-73
2022/10/22 06:00:56;;;;;;;14.25;2.30;;;22.20;99.90;;;;;;4958060;28;20200;-77
2022/10/22 06:03:27;;;;;;;10.98;2.20;;;22.10;99.90;;;;;;4979511;28;20204;-75
2022/10/22 06:06:02;;;;;;;10.45;2.20;;;22.00;99.90;;;;;;4977805;28;20669;-76
2022/10/22 06:08:33;;;;;;;14.32;2.38;;;22.00;99.90;;;;;;4971856;28;20220;-80
2022/10/22 06:11:04;;;;;;;15.88;2.13;;;21.90;99.90;;;;;;4975358;28;20196;-80
2022/10/22 06:13:35;;;;;;;13.10;2.50;;;21.90;99.90;;;;;;4989277;28;20203;-77
2022/10/22 06:16:06;;;;;;;13.93;2.42;;;21.90;99.90;;;;;;4981121;28;20204;-80
2022/10/22 06:18:36;;;;;;;9.75;2.60;;;21.90;99.90;;;;;;4976043;28;20648;-80
2022/10/22 06:21:12;;;;;;;12.18;2.38;;;21.90;99.90;;;;;;4978095;28;20201;-78
2022/10/22 06:23:43;;;;;;;15.13;2.35;;;21.90;99.90;;;;;;4981201;28;20203;-78
2022/10/22 06:26:16;;;;;;;11.73;2.20;;;22.00;99.90;;;;;;4970753;28;20574;-76
2022/10/22 06:28:47;;;;;;;14.52;2.50;;;22.00;99.90;;;;;;4975518;28;20718;-79
2022/10/22 06:31:18;;;;;;;9.88;1.88;;;22.00;99.90;;;;;;4973272;28;20557;-79
2022/10/22 06:33:49;;;;;;;14.07;2.25;;;21.90;99.90;;;;;;4976522;28;20208;-79
2022/10/22 06:36:29;;;;;;;13.43;2.33;;;22.00;99.90;;;;;;4976468;28;20203;-80
2022/10/22 06:39:03;;;;;;;12.35;2.10;;;22.00;99.90;;;;;;4975802;28;20244;-78
2022/10/22 06:41:35;;;;;;;11.45;2.22;;;22.00;99.90;;;;;;4976375;28;20193;-76
2022/10/22 06:44:06;;;;;;;9.05;1.83;;;22.00;99.90;;;;;;4976199;28;20193;-79
2022/10/22 06:46:36;;;;;;;15.25;2.40;;;22.00;99.90;;;;;;4976457;28;20204;-77
2022/10/22 06:49:07;;;;;;;11.85;2.65;;;22.00;99.90;;;;;;4976140;28;20234;-76
2022/10/22 06:51:40;;;;;;;11.52;2.47;;;22.00;99.90;;;;;;4976061;28;20192;-73
2022/10/22 06:54:11;;;;;;;15.45;2.72;;;22.00;99.90;;;;;;4975919;28;20561;-72
2022/10/22 06:56:41;;;;;;;17.67;3.00;;;21.90;99.90;;;;;;4989967;28;20204;-75
2022/10/22 06:59:12;;;;;;;17.10;2.45;;;21.90;99.90;;;;;;4985153;28;20208;-78
2022/10/22 07:01:43;;;;;;;18.83;2.70;;;21.90;99.90;;;;;;4963401;28;20673;-78
2022/10/22 07:04:14;;;;;;;7.68;1.83;;;21.80;99.90;;;;;;4982971;28;20205;-74
2022/10/22 07:06:47;;;;;;;17.75;2.85;;;21.80;99.90;;;;;;4980229;28;20593;-75
2022/10/22 07:09:17;;;;;;;18.52;2.67;;;21.70;99.90;;;;;;4975624;28;20231;-75
2022/10/22 07:11:49;;;;;;;10.52;2.30;;;21.70;99.90;;;;;;4968932;28;20220;-76
2022/10/22 07:14:19;;;;;;;16.63;2.67;;;21.70;99.90;;;;;;4977466;28;20695;-78
2022/10/22 07:16:50;;;;;;;11.93;2.35;;;21.70;99.90;;;;;;4986540;28;20204;-79
2022/10/22 07:19:21;;;;;;;13.95;2.60;;;21.60;99.90;;;;;;4974354;28;20204;-77
2022/10/22 07:21:53;;;;;;;13.77;2.30;;;21.60;99.90;;;;;;4985363;28;20200;-78
2022/10/22 07:24:24;;;;;;;18.67;2.90;;;21.60;99.90;;;;;;4987901;28;20196;-74
2022/10/22 07:26:55;;;;;;;15.13;2.45;;;21.50;99.90;;;;;;4985192;28;20204;-75
2022/10/22 07:29:26;;;;;;;11.23;2.50;;;21.50;99.90;;;;;;4977976;28;20215;-78
2022/10/22 07:32:32;;;;;;;16.65;2.53;;;21.50;99.90;;;;;;4978171;28;20666;-78
2022/10/22 07:35:03;;;;;;;15.85;2.95;;;21.50;99.90;;;;;;4983971;28;20231;-77
2022/10/22 07:37:36;;;;;;;16.52;3.45;;;21.40;99.90;;;;;;4977642;28;20299;-75
2022/10/22 07:40:07;;;;;;;20.65;3.17;;;21.40;99.90;;;;;;4975037;28;20203;-76
2022/10/22 07:42:38;;;;;;;16.70;2.53;;;21.30;99.90;;;;;;4977831;28;20279;-78
2022/10/22 07:45:10;;;;;;;15.20;2.90;;;21.30;99.90;;;;;;4988167;28;20489;-78
2022/10/22 07:47:40;;;;;;;14.63;2.63;;;21.30;99.90;;;;;;4991331;28;20215;-79
2022/10/22 07:50:11;;;;;;;15.40;2.53;;;21.20;99.90;;;;;;4993580;28;20206;-78
2022/10/22 07:52:46;;;;;;;18.20;2.95;;;21.20;99.90;;;;;;4965809;28;20606;-73
2022/10/22 07:55:20;;;;;;;18.52;3.20;;;21.20;99.90;;;;;;4975227;28;20287;-76
2022/10/22 07:57:52;;;;;;;16.60;3.40;;;21.10;99.90;;;;;;4974483;28;20204;-72
2022/10/22 08:00:23;;;;;;;16.20;2.95;;;21.10;99.90;;;;;;4974427;28;20328;-76
2022/10/22 08:02:54;;;;;;;18.00;2.75;;;21.00;99.90;;;;;;4979431;28;20283;-77
2022/10/22 08:05:25;;;;;;;14.32;3.03;;;21.00;99.90;;;;;;4973440;28;20206;-77
2022/10/22 08:07:57;;;;;;;16.70;3.38;;;21.00;99.90;;;;;;4970272;28;20212;-75
2022/10/22 08:10:28;;;;;;;20.33;3.22;;;20.90;99.90;;;;;;4971925;28;20220;-75
2022/10/22 08:12:59;;;;;;;20.55;2.85;;;20.90;99.90;;;;;;4992232;28;20228;-76
2022/10/22 08:15:30;;;;;;;18.70;3.40;;;20.90;99.90;;;;;;4979321;28;20613;-78
2022/10/22 08:18:01;;;;;;;19.17;5.28;;;20.80;99.90;;;;;;4973392;28;20200;-78
2022/10/22 08:20:31;;;;;;;25.13;6.00;;;20.80;99.90;;;;;;4973806;28;20554;-77
2022/10/22 08:23:04;;;;;;;18.35;3.63;;;20.70;99.90;;;;;;4976598;28;20192;-78
2022/10/22 08:25:35;;;;;;;22.67;3.85;;;20.70;99.90;;;;;;4973579;28;20673;-77
2022/10/22 08:28:06;;;;;;;19.58;4.32;;;20.60;99.90;;;;;;4971198;28;20224;-76
2022/10/22 08:30:37;;;;;;;15.15;3.28;;;20.60;99.90;;;;;;4971538;28;20215;-78
2022/10/22 08:33:08;;;;;;;16.10;2.78;;;20.60;99.90;;;;;;4970419;28;20200;-79
2022/10/22 08:35:39;;;;;;;15.05;2.90;;;20.60;99.90;;;;;;4970573;28;20735;-76
2022/10/22 08:38:12;;;;;;;19.83;3.10;;;20.60;99.90;;;;;;4955334;28;20236;-76
2022/10/22 08:40:44;;;;;;;17.05;2.80;;;20.50;99.90;;;;;;4955628;29;20328;-79
2022/10/22 08:43:48;;;;;;;20.77;2.90;;;20.50;99.90;;;;;;4973989;28;20206;-76
2022/10/22 08:46:33;;;;;;;22.25;2.92;;;20.50;99.90;;;;;;4920326;28;20211;-77
2022/10/22 08:49:06;;;;;;;18.38;3.05;;;20.50;99.90;;;;;;4980481;28;20691;-77
2022/10/22 08:51:40;;;;;;;15.65;2.90;;;20.50;99.90;;;;;;4981004;28;20200;-75
2022/10/22 08:54:25;;;;;;;16.13;2.83;;;20.50;99.90;;;;;;4973028;28;20267;-77
2022/10/22 08:57:18;;;;;;;19.58;2.83;;;20.40;99.90;;;;;;4970540;28;20560;-78
2022/10/22 08:59:55;;;;;;;14.05;2.70;;;20.40;99.90;;;;;;4971599;28;20291;-77
2022/10/22 09:02:37;;;;;;;16.88;3.13;;;20.30;99.90;;;;;;4979236;28;20231;-77
2022/10/22 09:05:24;;;;;;;15.30;3.20;;;20.30;99.90;;;;;;4976471;28;20192;-79
2022/10/22 09:07:56;;;;;;;19.33;3.10;;;20.30;99.90;;;;;;4977049;28;20223;-78
2022/10/22 09:10:33;;;;;;;17.08;2.92;;;20.20;99.90;;;;;;4976617;28;20220;-76
2022/10/22 09:13:04;;;;;;;19.88;3.92;;;20.20;99.90;;;;;;4979773;28;20200;-76
2022/10/22 09:15:34;;;;;;;20.23;3.92;;;20.20;99.90;;;;;;4976620;28;20196;-77
2022/10/22 09:18:21;;;;;;;18.27;3.50;;;20.20;99.90;;;;;;4975666;28;20210;-73
2022/10/22 09:20:56;;;;;;;17.02;3.55;;;20.10;99.90;;;;;;4974900;28;20577;-75
2022/10/22 09:23:34;;;;;;;17.92;3.60;;;20.10;99.90;;;;;;4974848;28;20198;-74
2022/10/22 09:26:15;;;;;;;14.52;3.15;;;20.10;99.90;;;;;;4974933;28;20255;-75
2022/10/22 09:28:50;;;;;;;18.15;3.38;;;20.10;99.90;;;;;;4976978;28;20226;-75
2022/10/22 09:31:21;;;;;;;13.20;3.78;;;20.10;99.90;;;;;;4974066;28;20196;-76
2022/10/22 09:33:53;;;;;;;19.33;3.42;;;20.10;99.90;;;;;;4980882;28;20598;-75
2022/10/22 09:36:26;;;;;;;15.90;3.45;;;20.10;99.90;;;;;;4977214;28;20192;-73
2022/10/22 09:38:57;;;;;;;16.25;3.97;;;20.00;99.90;;;;;;4972114;28;20228;-76
2022/10/22 09:41:31;;;;;;;18.00;3.80;;;20.00;99.90;;;;;;4974728;28;20549;-78
2022/10/22 09:44:09;;;;;;;14.38;3.20;;;20.00;99.90;;;;;;4974587;28;20203;-75
2022/10/22 09:46:44;;;;;;;43.00;22.63;;;20.00;99.90;;;;;;4974922;28;20200;-76
2022/10/22 09:49:17;;;;;;;17.80;3.80;;;20.00;99.90;;;;;;4975310;28;20216;-78
2022/10/22 09:51:57;;;;;;;15.63;3.67;;;20.00;99.90;;;;;;4974490;28;20205;-74
2022/10/22 09:54:39;;;;;;;14.82;3.08;;;20.00;99.90;;;;;;4970897;28;20203;-76
2022/10/22 09:57:17;;;;;;;17.10;3.40;;;20.00;99.90;;;;;;4972434;28;20196;-72
2022/10/22 09:59:52;;;;;;;15.13;3.40;;;20.00;99.90;;;;;;4975930;28;20229;-75
2022/10/22 10:02:25;;;;;;;25.33;3.70;;;20.00;99.90;;;;;;4975526;28;20218;-76
2022/10/22 10:04:57;;;;;;;19.65;3.83;;;20.00;99.90;;;;;;4974554;28;20196;-77
2022/10/22 10:07:32;;;;;;;16.88;4.07;;;20.00;99.90;;;;;;4974963;28;20196;-75
2022/10/22 10:10:03;;;;;;;18.42;3.50;;;20.00;99.90;;;;;;4974669;28;20245;-75
2022/10/22 10:12:44;;;;;;;15.95;3.45;;;20.00;99.90;;;;;;4973153;28;20196;-75
2022/10/22 10:15:23;;;;;;;12.07;3.20;;;20.00;99.90;;;;;;4972772;28;20207;-73
2022/10/22 10:18:03;;;;;;;13.60;3.30;;;20.00;99.90;;;;;;4974088;28;20204;-78
2022/10/22 10:20:41;;;;;;;17.23;4.05;;;20.00;99.90;;;;;;4973975;28;20188;-74
2022/10/22 10:23:22;;;;;;;17.30;3.92;;;20.00;99.90;;;;;;4971529;28;20575;-77
2022/10/22 10:25:59;;;;;;;17.70;3.75;;;20.00;99.90;;;;;;4975826;28;20279;-78
2022/10/22 10:28:48;;;;;;;18.10;3.97;;;20.00;99.90;;;;;;4972614;28;20231;-78
2022/10/22 10:31:30;;;;;;;19.38;4.13;;;20.00;99.90;;;;;;4975976;28;20199;-75
2022/10/22 10:34:10;;;;;;;15.50;3.90;;;19.90;99.90;;;;;;4978396;28;20274;-75
2022/10/22 10:36:47;;;;;;;17.70;3.92;;;20.00;99.90;;;;;;4979746;28;20267;-76
2022/10/22 10:39:25;;;;;;;19.00;3.50;;;20.00;99.90;;;;;;4971625;28;20202;-79
2022/10/22 10:42:04;;;;;;;16.48;3.20;;;20.00;99.90;;;;;;4972014;28;20565;-73
2022/10/22 10:44:59;;;;;;;12.13;3.28;;;20.00;99.90;;;;;;4971123;28;20204;-74
2022/10/22 10:47:52;;;;;;;12.32;3.17;;;20.00;99.90;;;;;;4973707;28;20648;-76
2022/10/22 10:50:30;;;;;;;15.00;3.17;;;20.00;99.90;;;;;;4971129;28;20234;-72
2022/10/22 10:53:11;;;;;;;13.13;3.20;;;20.00;99.90;;;;;;4974006;28;20196;-77
2022/10/22 10:55:52;;;;;;;17.00;3.28;;;19.90;99.90;;;;;;4978607;28;20204;-74
2022/10/22 10:58:32;;;;;;;22.40;3.33;;;19.90;99.90;;;;;;4962502;28;20205;-76
2022/10/22 11:01:10;;;;;;;16.98;3.40;;;19.90;99.90;;;;;;4974509;28;20206;-73
2022/10/22 11:04:07;;;;;;;19.05;3.40;;;19.90;99.90;;;;;;4973916;28;20676;-76
2022/10/22 11:06:40;;;;;;;19.52;3.08;;;19.90;99.90;;;;;;4972246;28;20200;-77
2022/10/22 11:09:22;;;;;;;19.25;3.55;;;19.90;99.90;;;;;;4968852;28;20227;-79
2022/10/22 11:11:56;;;;;;;17.55;3.03;;;19.90;99.90;;;;;;4973425;28;20207;-76
2022/10/22 11:14:33;;;;;;;11.45;3.55;;;19.90;99.90;;;;;;4975556;28;20560;-76
2022/10/22 11:17:12;;;;;;;18.27;3.50;;;19.80;99.90;;;;;;4971653;28;20640;-76
2022/10/22 11:19:47;;;;;;;18.45;3.72;;;19.90;99.90;;;;;;4972250;28;20308;-78
2022/10/22 11:22:25;;;;;;;12.93;3.35;;;19.90;99.90;;;;;;4973581;28;20278;-78
2022/10/22 11:25:02;;;;;;;14.98;3.60;;;19.90;99.90;;;;;;4973834;28;20185;-77
2022/10/22 11:27:41;;;;;;;20.55;3.60;;;19.90;99.90;;;;;;4978182;28;20203;-76
2022/10/22 11:30:17;;;;;;;14.40;3.28;;;19.90;99.90;;;;;;4971498;28;20208;-77
2022/10/22 11:32:53;;;;;;;15.48;3.20;;;19.90;99.90;;;;;;4974586;28;20198;-77
2022/10/22 11:35:27;;;;;;;16.65;3.45;;;19.90;99.90;;;;;;4978546;28;20199;-78
2022/10/22 11:37:59;;;;;;;18.50;4.05;;;19.90;99.90;;;;;;4973170;28;20227;-74
2022/10/22 11:40:37;;;;;;;16.17;3.25;;;19.80;99.90;;;;;;4978900;28;20203;-72
2022/10/22 11:43:09;;;;;;;17.13;3.60;;;19.80;99.90;;;;;;4973825;28;20652;-74
2022/10/22 11:45:41;;;;;;;15.70;3.25;;;19.80;99.90;;;;;;4974130;28;20636;-75
2022/10/22 11:48:19;;;;;;;13.80;3.38;;;19.80;99.90;;;;;;4972330;28;20234;-74
2022/10/22 11:50:53;;;;;;;12.45;3.58;;;19.80;99.90;;;;;;4978828;28;20212;-73
2022/10/22 11:53:32;;;;;;;11.02;3.70;;;19.80;99.90;;;;;;4973836;28;20191;-77
2022/10/22 11:56:21;;;;;;;16.45;3.55;;;19.80;99.90;;;;;;4973914;28;20254;-77
2022/10/22 11:58:52;;;;;;;13.65;3.33;;;19.80;99.90;;;;;;4972235;28;20207;-78
2022/10/22 12:01:28;;;;;;;17.17;3.80;;;19.80;99.90;;;;;;4978446;28;20203;-77
2022/10/22 12:04:24;;;;;;;18.13;3.45;;;19.80;99.90;;;;;;4972048;28;20196;-76
2022/10/22 12:06:57;;;;;;;15.90;3.60;;;19.80;99.90;;;;;;4973854;28;20558;-78
2022/10/22 12:09:31;;;;;;;15.40;3.30;;;19.80;99.90;;;;;;4974345;28;20242;-78
2022/10/22 12:12:16;;;;;;;20.95;3.92;;;19.70;99.90;;;;;;4973852;28;20196;-73
2022/10/22 12:14:58;;;;;;;14.80;3.45;;;19.70;99.90;;;;;;4973211;28;20211;-76
2022/10/22 12:17:30;;;;;;;17.90;3.72;;;19.70;99.90;;;;;;4974663;28;20189;-78
2022/10/22 12:20:09;;;;;;;13.85;3.50;;;19.70;99.90;;;;;;4972684;28;20207;-76
2022/10/22 12:22:41;;;;;;;15.93;3.47;;;19.70;99.90;;;;;;4970188;28;20207;-76
2022/10/22 12:25:21;;;;;;;14.13;3.30;;;19.70;99.90;;;;;;4972274;28;20239;-76
2022/10/22 12:27:56;;;;;;;14.32;3.30;;;19.70;99.90;;;;;;4974539;28;20286;-79
2022/10/22 12:30:28;;;;;;;21.27;3.70;;;19.70;99.90;;;;;;4976648;28;20686;-76
2022/10/22 12:33:01;;;;;;;17.77;3.40;;;19.70;99.90;;;;;;4976369;28;20196;-77
2022/10/22 12:35:35;;;;;;;16.30;3.80;;;19.70;99.90;;;;;;4970760;28;20192;-77
2022/10/22 12:38:12;;;;;;;13.27;2.85;;;19.70;99.90;;;;;;4975989;28;20340;-76
2022/10/22 12:40:44;;;;;;;17.23;3.83;;;19.70;99.90;;;;;;4972308;28;20701;-73
2022/10/22 12:43:16;;;;;;;10.32;3.30;;;19.70;99.90;;;;;;4980905;28;20199;-77
2022/10/22 12:45:48;;;;;;;8.50;3.17;;;19.70;99.90;;;;;;4979965;28;20207;-77
2022/10/22 12:48:21;;;;;;;11.48;3.20;;;19.70;99.90;;;;;;4973744;28;20200;-74
2022/10/22 12:50:55;;;;;;;16.40;3.70;;;19.70;99.90;;;;;;4971623;28;20220;-76
2022/10/22 12:53:29;;;;;;;9.90;3.33;;;19.70;99.90;;;;;;4977131;28;20257;-74
2022/10/22 12:56:03;;;;;;;16.63;3.40;;;19.70;99.90;;;;;;4971590;28;20219;-76
2022/10/22 12:58:39;;;;;;;12.18;3.22;;;19.70;99.90;;;;;;4973421;28;20199;-77
2022/10/22 13:01:12;;;;;;;9.98;3.28;;;19.70;99.90;;;;;;4971206;28;20198;-78
2022/10/22 13:03:45;;;;;;;11.80;3.30;;;19.80;99.90;;;;;;4974039;28;20198;-77
2022/10/22 13:06:27;;;;;;;11.30;3.30;;;19.80;99.90;;;;;;4971153;28;20196;-78
2022/10/22 13:09:15;;;;;;;13.07;3.50;;;19.80;99.90;;;;;;4978480;28;20215;-77
2022/10/22 13:11:52;;;;;;;12.95;3.45;;;19.80;99.90;;;;;;4973814;28;21791;-78
2022/10/22 13:14:31;;;;;;;13.88;3.60;;;19.80;99.90;;;;;;4971367;28;20200;-78